Time;durP1;ratioP1;P1;durP2;ratioP2;P2;SDS_P1;SDS_P2;PMS_P1;PMS_P2;Temp;Humidity;BMP_temperature;BMP_pressure;BME280_temperature;BME280_humidity;BME280_pressure;Samples;Min_cycle;Max_cycle;Signal;HPM_P1;HPM_P2
2022/02/19 00:02:00;;;;;;;6.00;2.80;;;;;;;8.85;72.24;97786.75;130424;1268;108843;-85
2022/02/19 00:05:07;;;;;;;8.70;2.40;;;;;;;8.90;72.46;97805.77;130402;1268;108721;-78
2022/02/19 00:08:13;;;;;;;5.50;2.60;;;;;;;8.95;72.10;97806.73;130431;1268;108947;-80
2022/02/19 00:11:18;;;;;;;5.40;2.50;;;;;;;9.01;71.84;97813.11;130518;1268;107407;-80
2022/02/19 00:14:24;;;;;;;5.00;2.10;;;;;;;9.09;71.53;97824.70;130554;1268;108863;-80
2022/02/19 00:17:29;;;;;;;4.10;2.00;;;;;;;9.14;70.88;97822.17;130307;1268;108797;-80
2022/02/19 00:20:35;;;;;;;5.20;2.30;;;;;;;9.21;70.59;97831.92;130371;1268;108973;-78
2022/02/19 00:23:40;;;;;;;5.30;1.90;;;;;;;9.24;70.27;97847.32;130271;1268;108531;-78
2022/02/19 00:26:46;;;;;;;5.20;2.20;;;;;;;9.25;69.82;97847.55;130372;1268;108837;-79
2022/02/19 00:29:52;;;;;;;4.10;1.80;;;;;;;9.29;69.54;97854.00;130529;1268;108963;-80
2022/02/19 00:33:00;;;;;;;5.50;2.00;;;;;;;9.31;68.65;97878.63;130467;1268;108921;-79
2022/02/19 00:36:07;;;;;;;4.20;1.80;;;;;;;9.37;68.39;97872.25;130332;1268;108975;-80
2022/02/19 00:39:13;;;;;;;4.20;2.10;;;;;;;9.37;68.14;97895.84;130304;1268;108749;-77
2022/02/19 00:42:18;;;;;;;4.20;2.20;;;;;;;9.38;67.24;97899.94;130319;1268;108204;-81
2022/02/19 00:45:24;;;;;;;4.20;2.10;;;;;;;9.42;66.03;97907.27;130363;1268;108589;-82
2022/02/19 00:48:29;;;;;;;4.80;1.70;;;;;;;9.45;66.46;97918.00;130415;1268;108784;-83
2022/02/19 00:51:36;;;;;;;4.90;1.90;;;;;;;9.50;66.20;97922.59;130203;1268;108598;-83
2022/02/19 00:54:41;;;;;;;3.30;1.70;;;;;;;9.51;66.12;97943.11;130358;1268;108508;-82
2022/02/19 00:57:47;;;;;;;6.50;2.50;;;;;;;9.50;66.20;97950.23;130210;1268;108903;-81
2022/02/19 01:00:53;;;;;;;4.00;1.90;;;;;;;9.46;65.58;97965.30;130363;1268;107761;-81
2022/02/19 01:04:24;;;;;;;2.00;1.20;;;;;;;9.38;61.79;97964.23;130443;1268;108987;-82
2022/02/19 01:07:29;;;;;;;2.80;1.30;;;;;;;9.31;59.27;97974.98;130278;1268;108693;-81
2022/02/19 01:10:37;;;;;;;2.10;1.00;;;;;;;9.25;58.49;97973.98;130373;1268;108899;-78
2022/02/19 01:13:43;;;;;;;3.20;0.90;;;;;;;9.24;59.03;97987.90;130173;1268;108784;-78
2022/02/19 01:16:49;;;;;;;1.80;0.80;;;;;;;9.18;58.76;98001.38;130100;1268;108835;-79
2022/02/19 01:19:54;;;;;;;3.10;1.00;;;;;;;9.11;58.82;98000.33;130155;1268;106597;-79
2022/02/19 01:22:59;;;;;;;2.50;1.10;;;;;;;9.03;60.26;98004.52;130237;1268;107755;-79
2022/02/19 01:26:05;;;;;;;2.80;1.00;;;;;;;8.94;58.99;98004.80;130217;1268;107642;-80
2022/02/19 01:29:11;;;;;;;2.80;0.90;;;;;;;8.90;59.50;98016.62;130316;1268;108837;-80
2022/02/19 01:32:17;;;;;;;3.30;0.80;;;;;;;8.86;57.68;98032.63;130255;1268;107686;-79
2022/02/19 01:35:22;;;;;;;2.40;0.90;;;;;;;8.83;57.02;98040.42;130163;1268;109275;-79
2022/02/19 01:38:29;;;;;;;2.10;0.70;;;;;;;8.78;56.86;98046.66;130198;1268;108761;-80
2022/02/19 01:41:36;;;;;;;3.10;0.70;;;;;;;8.68;54.62;98048.20;130270;1268;108884;-79
2022/02/19 01:44:47;;;;;;;3.70;0.80;;;;;;;8.62;56.53;98053.52;130256;1268;108882;-78
2022/02/19 01:47:53;;;;;;;4.60;1.20;;;;;;;8.54;56.12;98051.30;130405;1268;108984;-82
2022/02/19 01:51:00;;;;;;;2.50;0.70;;;;;;;8.48;56.61;98062.34;130714;1268;108774;-81
2022/02/19 01:54:08;;;;;;;2.40;0.80;;;;;;;8.40;56.50;98064.48;131059;1268;109673;-81
2022/02/19 01:57:37;;;;;;;3.10;1.00;;;;;;;8.31;56.35;98068.48;130736;1268;109213;-80
2022/02/19 02:01:05;;;;;;;3.60;0.80;;;;;;;8.24;56.14;98078.27;130689;1268;108880;-79
2022/02/19 02:04:42;;;;;;;5.40;0.80;;;;;;;8.20;56.20;98077.62;130267;1268;107744;-80
2022/02/19 02:07:49;;;;;;;1.90;0.70;;;;;;;8.15;56.30;98076.47;130169;1268;108619;-81
2022/02/19 02:10:55;;;;;;;1.00;0.50;;;;;;;8.09;55.29;98083.00;130097;1268;107757;-81
2022/02/19 02:14:14;;;;;;;2.50;0.80;;;;;;;8.05;54.47;98086.04;130388;1268;108949;-81
2022/02/19 02:17:40;;;;;;;1.40;0.70;;;;;;;8.02;55.19;98093.27;130455;1268;108851;-82
2022/02/19 02:20:46;;;;;;;2.00;0.90;;;;;;;7.99;54.41;98097.21;130900;1268;108698;-82
2022/02/19 02:23:55;;;;;;;2.50;0.80;;;;;;;7.98;54.36;98095.70;130405;1268;107718;-81
2022/02/19 02:27:04;;;;;;;2.60;0.80;;;;;;;7.97;54.55;98103.27;130433;1268;108807;-82
2022/02/19 02:30:11;;;;;;;2.70;1.00;;;;;;;7.94;54.52;98113.70;130445;1266;108778;-82
2022/02/19 02:33:22;;;;;;;2.10;0.90;;;;;;;7.92;53.46;98113.07;130485;1268;108753;-81
2022/02/19 02:36:33;;;;;;;4.70;1.00;;;;;;;7.93;54.40;98112.14;130468;1267;108797;-82
2022/02/19 02:39:40;;;;;;;3.10;0.80;;;;;;;7.97;54.51;98116.10;130545;1268;109003;-82
2022/02/19 02:42:46;;;;;;;4.70;1.10;;;;;;;7.98;53.00;98104.80;130387;1268;108749;-81
2022/02/19 02:45:52;;;;;;;4.60;1.00;;;;;;;7.97;53.25;98124.23;130679;1268;108945;-79
2022/02/19 02:48:59;;;;;;;3.60;0.90;;;;;;;7.93;53.83;98133.18;130531;1268;107714;-79
2022/02/19 02:52:07;;;;;;;2.70;0.80;;;;;;;7.90;53.24;98138.84;130385;1268;108870;-80
2022/02/19 02:55:15;;;;;;;4.40;1.10;;;;;;;7.88;52.96;98132.59;130532;1268;107773;-80
2022/02/19 02:58:21;;;;;;;4.70;1.40;;;;;;;7.86;52.42;98129.80;130391;1268;108969;-80
2022/02/19 03:01:26;;;;;;;3.10;1.10;;;;;;;7.83;53.31;98124.91;130287;1268;108863;-78
2022/02/19 03:04:32;;;;;;;2.00;0.70;;;;;;;7.78;52.62;98131.72;130434;1268;108874;-79
2022/02/19 03:07:39;;;;;;;2.80;1.00;;;;;;;7.75;52.88;98138.17;130297;1268;107708;-79
2022/02/19 03:10:46;;;;;;;4.30;0.90;;;;;;;7.73;52.66;98148.85;130528;1268;109011;-78
2022/02/19 03:13:52;;;;;;;4.90;0.80;;;;;;;7.70;53.06;98145.71;130517;1267;107691;-77
2022/02/19 03:16:58;;;;;;;3.90;0.90;;;;;;;7.67;52.91;98153.48;130500;1268;108758;-78
2022/02/19 03:20:06;;;;;;;2.00;0.60;;;;;;;7.66;53.22;98147.83;130513;1267;108817;-78
2022/02/19 03:23:12;;;;;;;3.30;0.90;;;;;;;7.63;52.84;98167.96;130545;1267;107619;-79
2022/02/19 03:26:18;;;;;;;4.80;1.00;;;;;;;7.61;52.11;98183.70;130318;1268;108783;-77
2022/02/19 03:29:23;;;;;;;4.80;0.70;;;;;;;7.60;53.12;98187.24;130528;1268;108782;-80
2022/02/19 03:32:29;;;;;;;3.70;0.80;;;;;;;7.59;52.88;98186.17;130273;1268;108910;-79
2022/02/19 03:35:35;;;;;;;4.80;1.00;;;;;;;7.58;51.42;98195.18;130341;1268;108784;-79
2022/02/19 03:38:41;;;;;;;3.40;0.80;;;;;;;7.55;49.25;98213.27;130471;1268;108712;-79
2022/02/19 03:41:51;;;;;;;2.70;0.90;;;;;;;7.55;51.08;98209.56;130503;1267;107687;-78
2022/02/19 03:44:57;;;;;;;3.50;1.10;;;;;;;7.52;51.98;98214.58;130462;1268;108716;-77
2022/02/19 03:48:04;;;;;;;1.80;0.90;;;;;;;7.50;51.52;98222.10;130490;1268;108887;-77
2022/02/19 03:51:09;;;;;;;5.10;1.00;;;;;;;7.49;52.00;98226.75;130327;1268;109101;-79
2022/02/19 03:54:15;;;;;;;4.00;0.80;;;;;;;7.50;51.25;98219.91;130457;1268;108696;-78
2022/02/19 03:57:22;;;;;;;4.70;1.10;;;;;;;7.51;52.08;98237.52;130361;1268;108934;-78
2022/02/19 04:00:29;;;;;;;3.90;0.80;;;;;;;7.51;51.62;98227.39;130424;1267;108682;-78
2022/02/19 04:03:35;;;;;;;3.70;1.00;;;;;;;7.53;51.04;98244.23;130363;1268;108905;-79
2022/02/19 04:06:41;;;;;;;2.20;0.70;;;;;;;7.55;51.14;98244.30;130390;1268;108989;-79
2022/02/19 04:09:48;;;;;;;4.20;0.90;;;;;;;7.56;51.21;98248.03;130339;1268;108760;-80
2022/02/19 04:12:53;;;;;;;4.60;1.30;;;;;;;7.57;51.08;98243.64;130506;1266;108722;-77
2022/02/19 04:16:28;;;;;;;3.40;1.00;;;;;;;7.58;49.70;98249.77;130051;1268;108843;-78
2022/02/19 04:19:36;;;;;;;5.10;1.10;;;;;;;7.58;49.71;98258.83;130383;1267;108705;-79
2022/02/19 04:22:41;;;;;;;3.20;0.90;;;;;;;7.57;49.15;98258.02;130536;1267;108863;-81
2022/02/19 04:25:47;;;;;;;3.20;0.80;;;;;;;7.56;49.45;98254.23;130513;1268;108788;-82
2022/02/19 04:29:00;;;;;;;2.80;0.90;;;;;;;7.53;50.48;98257.95;130577;1268;108777;-81
2022/02/19 04:32:13;;;;;;;1.90;0.80;;;;;;;7.53;49.62;98253.42;130471;1268;108664;-79
2022/02/19 04:35:28;;;;;;;2.20;0.70;;;;;;;7.51;50.20;98263.20;130355;1268;108712;-80
2022/02/19 04:38:34;;;;;;;4.10;0.90;;;;;;;7.51;50.03;98261.03;130392;1268;108693;-82
2022/02/19 04:41:39;;;;;;;5.00;1.30;;;;;;;7.49;50.40;98257.01;130264;1268;108913;-78
2022/02/19 04:44:48;;;;;;;3.40;1.10;;;;;;;7.47;49.98;98265.84;130414;1268;108864;-80
2022/02/19 04:47:54;;;;;;;5.10;1.40;;;;;;;7.46;49.28;98272.21;130385;1268;108983;-79
2022/02/19 04:51:00;;;;;;;2.90;0.90;;;;;;;7.46;50.27;98281.98;130589;1268;108779;-83
2022/02/19 04:54:06;;;;;;;2.60;0.90;;;;;;;7.46;49.98;98279.16;130379;1268;107664;-79
2022/02/19 04:57:12;;;;;;;3.10;0.80;;;;;;;7.45;49.05;98293.00;130594;1268;107703;-81
2022/02/19 05:00:20;;;;;;;4.50;0.90;;;;;;;7.46;48.55;98289.42;130626;1268;108794;-80
2022/02/19 05:03:49;;;;;;;3.30;1.00;;;;;;;7.46;49.05;98304.06;130216;1267;107093;-81
2022/02/19 05:07:01;;;;;;;3.50;1.00;;;;;;;7.42;49.18;98309.62;130572;1267;108813;-81
2022/02/19 05:10:08;;;;;;;2.30;0.80;;;;;;;7.38;47.60;98323.55;130420;1268;108713;-76
2022/02/19 05:13:14;;;;;;;2.60;0.90;;;;;;;7.35;47.23;98323.41;130477;1268;108957;-80
2022/02/19 05:16:20;;;;;;;5.10;1.20;;;;;;;7.33;47.24;98307.77;130584;1268;107676;-81
2022/02/19 05:19:45;;;;;;;3.90;0.90;;;;;;;7.31;47.47;98314.93;130581;1267;108809;-77
2022/02/19 05:22:52;;;;;;;56.70;33.10;;;;;;;7.27;47.61;98307.77;130355;1268;108979;-79
2022/02/19 05:26:04;;;;;;;14.70;8.00;;;;;;;7.19;48.41;98300.83;130439;1268;108682;-78
2022/02/19 05:29:10;;;;;;;7.30;2.60;;;;;;;7.12;48.45;98294.60;130471;1267;107464;-79
2022/02/19 05:32:16;;;;;;;30.20;12.80;;;;;;;7.03;48.05;98295.52;130339;1267;108729;-78
2022/02/19 05:35:29;;;;;;;11.70;2.50;;;;;;;6.94;47.82;98291.27;130416;1267;108818;-75
2022/02/19 05:38:35;;;;;;;2.80;1.00;;;;;;;6.86;48.79;98286.67;130331;1266;108941;-77
2022/02/19 05:41:41;;;;;;;5.40;1.60;;;;;;;6.80;48.21;98289.73;130341;1268;108733;-76
2022/02/19 05:44:48;;;;;;;5.10;1.30;;;;;;;6.73;48.91;98298.99;130545;1267;108887;-75
2022/02/19 05:47:56;;;;;;;3.30;1.00;;;;;;;6.67;49.21;98311.29;130585;1268;107848;-76
2022/02/19 05:51:11;;;;;;;3.50;1.20;;;;;;;6.61;49.02;98310.77;130530;1266;108844;-78
2022/02/19 05:54:26;;;;;;;5.70;1.40;;;;;;;6.56;48.78;98308.52;130604;1268;108831;-79
2022/02/19 05:57:42;;;;;;;4.20;1.50;;;;;;;6.50;48.69;98307.54;130578;1268;108678;-77
2022/02/19 06:00:48;;;;;;;3.60;0.80;;;;;;;6.46;48.36;98312.23;130479;1268;108752;-79
2022/02/19 06:03:53;;;;;;;5.70;2.00;;;;;;;6.44;48.14;98319.44;130691;1266;108586;-79
2022/02/19 06:07:02;;;;;;;3.80;1.30;;;;;;;6.41;48.15;98321.86;130712;1267;108845;-80
2022/02/19 06:10:09;;;;;;;5.90;1.40;;;;;;;6.39;47.96;98323.90;130465;1268;108697;-79
2022/02/19 06:13:17;;;;;;;6.20;1.00;;;;;;;6.37;47.90;98327.58;130529;1268;109010;-81
2022/02/19 06:16:27;;;;;;;3.80;1.30;;;;;;;6.37;47.53;98330.30;130637;1267;108711;-81
2022/02/19 06:19:53;;;;;;;18.20;8.10;;;;;;;6.36;47.70;98333.55;130136;1271;107905;-79
2022/02/19 06:23:00;;;;;;;21.80;10.20;;;;;;;6.36;47.60;98340.85;129983;1271;108858;-79
2022/02/19 06:26:05;;;;;;;52.80;23.80;;;;;;;6.38;47.25;98339.05;130057;1271;109522;-79
2022/02/19 06:29:15;;;;;;;57.10;24.10;;;;;;;6.43;46.87;98334.92;130177;1271;108782;-80
2022/02/19 06:32:25;;;;;;;94.30;36.70;;;;;;;6.49;47.22;98351.67;130020;1271;108899;-80
2022/02/19 06:35:31;;;;;;;39.50;15.00;;;;;;;6.56;47.31;98350.38;130072;1271;108885;-82
2022/02/19 06:38:47;;;;;;;64.00;23.60;;;;;;;6.64;46.93;98360.69;130147;1269;108875;-77
2022/02/19 06:41:56;;;;;;;39.40;17.30;;;;;;;6.71;46.88;98353.92;130118;1271;108903;-78
2022/02/19 06:45:15;;;;;;;25.60;11.40;;;;;;;6.79;46.22;98369.29;129916;1271;107678;-78
2022/02/19 06:48:20;;;;;;;43.50;20.70;;;;;;;6.85;46.64;98359.08;129980;1271;108283;-78
2022/02/19 06:51:27;;;;;;;124.80;55.80;;;;;;;6.91;47.10;98365.96;130322;1268;108721;-78
2022/02/19 06:54:32;;;;;;;22.30;8.50;;;;;;;6.97;46.98;98363.37;130429;1266;107807;-78
2022/02/19 06:57:39;;;;;;;68.30;28.40;;;;;;;7.01;45.85;98369.56;130379;1267;108935;-79
2022/02/19 07:00:46;;;;;;;43.30;18.70;;;;;;;7.06;45.81;98369.38;130516;1268;108824;-78
2022/02/19 07:03:54;;;;;;;19.20;7.40;;;;;;;7.13;45.96;98365.11;130490;1267;107654;-79
2022/02/19 07:07:23;;;;;;;51.20;20.30;;;;;;;7.19;45.96;98372.45;130346;1267;109594;-78
2022/02/19 07:10:29;;;;;;;62.20;28.70;;;;;;;7.20;44.61;98374.88;130484;1267;108631;-77
2022/02/19 07:13:35;;;;;;;43.10;19.40;;;;;;;7.21;44.69;98377.27;130398;1267;108773;-78
2022/02/19 07:16:42;;;;;;;23.10;10.50;;;;;;;7.30;45.84;98380.83;130360;1267;108733;-79
2022/02/19 07:19:48;;;;;;;16.50;7.60;;;;;;;7.37;45.61;98387.00;130390;1268;108819;-79
2022/02/19 07:22:55;;;;;;;28.90;14.50;;;;;;;7.40;45.82;98378.49;130326;1267;108681;-80
2022/02/19 07:26:01;;;;;;;11.40;4.50;;;;;;;7.46;46.20;98389.02;130302;1267;108696;-79
2022/02/19 07:29:09;;;;;;;20.50;9.60;;;;;;;7.50;45.52;98392.92;130562;1267;108813;-77
2022/02/19 07:32:24;;;;;;;31.20;13.70;;;;;;;7.55;46.26;98395.75;130225;1268;108913;-80
2022/02/19 07:35:30;;;;;;;21.40;11.30;;;;;;;7.63;46.94;98403.14;130257;1268;107683;-81
2022/02/19 07:38:35;;;;;;;20.30;10.60;;;;;;;7.68;45.13;98404.82;130317;1267;108859;-79
2022/02/19 07:41:41;;;;;;;14.50;5.40;;;;;;;7.70;45.86;98405.70;130263;1268;108880;-78
2022/02/19 07:44:56;;;;;;;8.20;3.20;;;;;;;7.67;45.51;98408.98;130300;1268;108031;-79
2022/02/19 07:48:20;;;;;;;149.10;51.90;;;;;;;7.69;46.14;98410.39;130309;1268;109037;-80
2022/02/19 07:58:38;;;;;;;7.30;2.50;;;;;;;7.69;45.55;98425.82;130440;1268;107832;-78
2022/02/19 08:01:44;;;;;;;9.60;4.60;;;;;;;7.64;46.05;98424.77;130406;1268;108748;-79
2022/02/19 08:04:49;;;;;;;6.10;2.90;;;;;;;7.59;44.84;98410.85;130340;1268;108848;-81
2022/02/19 08:07:54;;;;;;;10.40;5.50;;;;;;;7.53;44.92;98427.48;130390;1268;108731;-79
2022/02/19 11:29:29;;;;;;;5.30;3.10;;;;;;;8.87;44.54;98829.13;125928;1309;649154;-77
2022/02/19 11:32:36;;;;;;;5.50;1.60;;;;;;;8.88;44.42;98836.73;129736;1273;151269;-78
2022/02/19 11:35:43;;;;;;;3.90;1.40;;;;;;;8.85;44.38;98834.15;129932;1273;108922;-80
2022/02/19 11:38:53;;;;;;;10.10;7.20;;;;;;;8.80;44.51;98847.15;130029;1273;108923;-79
2022/02/19 11:41:59;;;;;;;7.90;2.10;;;;;;;8.76;44.75;98858.42;129856;1273;108727;-78
2022/02/19 11:45:24;;;;;;;3.30;1.40;;;;;;;8.77;45.04;98865.26;130032;1273;108705;-77
2022/02/19 11:48:30;;;;;;;16.50;9.30;;;;;;;8.77;45.05;98876.41;130078;1273;108851;-75
2022/02/19 11:51:36;;;;;;;43.80;20.60;;;;;;;8.72;44.82;98882.34;130048;1273;108872;-77
2022/02/19 11:54:41;;;;;;;23.70;13.00;;;;;;;8.63;44.62;98896.09;129881;1272;109106;-76
2022/02/19 11:58:02;;;;;;;23.60;11.90;;;;;;;8.51;45.12;98894.61;130046;1273;107682;-82
2022/02/19 12:01:13;;;;;;;33.70;21.20;;;;;;;8.47;45.04;98899.69;130375;1270;108850;-77
2022/02/19 12:04:20;;;;;;;22.60;12.40;;;;;;;8.50;45.16;98905.48;130115;1270;108740;-76
2022/02/19 12:07:26;;;;;;;37.90;24.60;;;;;;;8.46;44.68;98893.77;130197;1270;108965;-81
2022/02/19 12:10:36;;;;;;;58.40;32.80;;;;;;;8.48;44.58;98909.02;130223;1270;106851;-82
2022/02/19 12:13:47;;;;;;;33.60;16.40;;;;;;;8.46;45.12;98903.84;130400;1270;108753;-80
2022/02/19 12:16:53;;;;;;;27.80;13.50;;;;;;;8.56;45.93;98915.95;130351;1270;108948;-77
2022/02/19 12:20:09;;;;;;;36.60;18.50;;;;;;;8.72;45.57;98900.27;130546;1270;108836;-80
2022/02/19 12:23:14;;;;;;;53.30;25.50;;;;;;;8.81;45.76;98895.66;130309;1270;108613;-80
2022/02/19 12:26:20;;;;;;;106.10;45.80;;;;;;;8.92;45.88;98905.44;130286;1270;108868;-81
2022/02/19 12:29:26;;;;;;;21.90;9.60;;;;;;;9.00;44.93;98912.83;130204;1269;108970;-80
2022/02/19 12:32:34;;;;;;;10.80;5.20;;;;;;;8.97;44.90;98923.13;130519;1267;107674;-80
2022/02/19 12:35:41;;;;;;;201.40;89.50;;;;;;;8.93;44.94;98921.27;130476;1266;108442;-80
2022/02/19 12:38:52;;;;;;;14.60;6.90;;;;;;;8.77;44.39;98929.41;130412;1266;108898;-81
2022/02/19 12:41:58;;;;;;;13.70;5.20;;;;;;;8.58;44.52;98939.25;130569;1266;108878;-79
2022/02/19 12:45:06;;;;;;;9.40;4.60;;;;;;;8.46;44.89;98938.64;130437;1266;107851;-79
2022/02/19 12:48:12;;;;;;;8.80;4.00;;;;;;;8.44;44.83;98948.79;130518;1266;109806;-78
2022/02/19 12:51:18;;;;;;;49.00;23.00;;;;;;;8.33;45.07;98961.33;130456;1267;108633;-77
2022/02/19 12:54:37;;;;;;;9.30;4.10;;;;;;;8.35;45.32;98970.29;130463;1267;108881;-77
2022/02/19 12:57:42;;;;;;;13.40;4.30;;;;;;;8.38;45.20;98971.75;130561;1267;108997;-78
2022/02/19 13:00:54;;;;;;;10.00;3.00;;;;;;;8.39;45.62;98984.73;130479;1267;109550;-78
2022/02/19 13:03:59;;;;;;;11.50;6.40;;;;;;;8.36;45.31;98984.71;130433;1267;108795;-78
2022/02/19 13:07:06;;;;;;;7.80;4.00;;;;;;;8.36;45.54;98990.92;130478;1267;108764;-80
2022/02/19 13:10:13;;;;;;;9.10;3.80;;;;;;;8.30;45.10;99009.08;130491;1267;108712;-81
2022/02/19 13:13:21;;;;;;;6.50;3.30;;;;;;;8.21;45.17;99003.31;130528;1267;109033;-82
2022/02/19 13:16:26;;;;;;;15.60;6.00;;;;;;;8.15;45.37;99010.17;130604;1267;108750;-83
2022/02/19 13:19:36;;;;;;;49.80;24.10;;;;;;;8.06;45.43;99025.46;130564;1267;108655;-82
2022/02/19 13:22:42;;;;;;;23.10;9.20;;;;;;;8.01;45.57;99032.98;130717;1267;108708;-80
2022/02/19 13:25:48;;;;;;;35.60;19.60;;;;;;;8.00;45.71;99036.76;130756;1267;109149;-83
2022/02/19 13:28:55;;;;;;;9.30;4.10;;;;;;;8.02;45.90;99033.15;130463;1267;108965;-84
2022/02/19 13:32:01;;;;;;;12.40;6.00;;;;;;;8.00;45.89;99039.13;130459;1267;108851;-83
2022/02/19 13:35:10;;;;;;;6.10;2.50;;;;;;;8.01;46.26;99039.69;130648;1267;107678;-83
2022/02/19 13:38:16;;;;;;;4.80;2.20;;;;;;;8.09;46.15;99043.85;130540;1266;108845;-84
2022/02/19 13:41:22;;;;;;;6.90;3.70;;;;;;;8.08;45.71;99050.77;130460;1266;108703;-82
2022/02/19 13:44:28;;;;;;;4.90;2.40;;;;;;;8.08;45.98;99054.73;130530;1267;108770;-81
2022/02/19 13:47:35;;;;;;;6.30;3.10;;;;;;;8.00;46.08;99070.27;130411;1267;108643;-80
2022/02/19 13:50:42;;;;;;;5.00;2.40;;;;;;;7.96;46.38;99069.63;130637;1267;108866;-79
2022/02/19 13:53:48;;;;;;;5.50;3.30;;;;;;;7.87;46.32;99079.83;131024;1266;108766;-78
2022/02/19 13:56:53;;;;;;;5.20;3.00;;;;;;;7.82;46.36;99080.27;130453;1267;108779;-77
2022/02/19 14:00:05;;;;;;;5.40;2.40;;;;;;;7.83;46.16;99079.54;130512;1267;108646;-80
2022/02/19 14:03:19;;;;;;;11.90;7.20;;;;;;;7.79;46.55;99085.94;130915;1267;107769;-77
2022/02/19 14:06:35;;;;;;;25.10;9.50;;;;;;;7.66;46.43;99084.33;130694;1266;108833;-81
2022/02/19 14:09:40;;;;;;;39.20;24.10;;;;;;;7.48;46.55;99090.09;130595;1266;108772;-78
2022/02/19 14:12:46;;;;;;;15.90;7.90;;;;;;;7.37;46.61;99101.36;130463;1267;108712;-79
2022/02/19 14:15:51;;;;;;;20.20;12.00;;;;;;;7.28;46.82;99101.57;130523;1267;108567;-79
2022/02/19 14:19:05;;;;;;;5.40;3.70;;;;;;;7.22;46.85;99114.28;130588;1264;109011;-75
2022/02/19 14:22:13;;;;;;;6.50;3.80;;;;;;;7.15;47.17;99130.70;130709;1267;108755;-75
2022/02/19 14:25:20;;;;;;;8.20;5.30;;;;;;;7.07;47.66;99127.05;130529;1267;108876;-77
2022/02/19 14:28:28;;;;;;;36.00;22.50;;;;;;;7.08;47.45;99143.80;130577;1266;108656;-75
2022/02/19 14:31:36;;;;;;;16.20;9.40;;;;;;;7.18;47.28;99146.72;130535;1265;106708;-77
2022/02/19 14:34:41;;;;;;;27.20;16.50;;;;;;;7.25;47.85;99147.38;130660;1267;108119;-79
2022/02/19 14:37:47;;;;;;;24.10;14.00;;;;;;;7.22;47.55;99155.30;130579;1267;107129;-78
2022/02/19 14:40:54;;;;;;;30.50;20.20;;;;;;;7.17;47.67;99156.34;130595;1267;108831;-77
2022/02/19 14:44:00;;;;;;;9.20;6.00;;;;;;;7.13;47.66;99166.27;130473;1267;108751;-80
2022/02/19 14:47:06;;;;;;;31.70;21.00;;;;;;;7.00;47.63;99170.20;130552;1267;108679;-76
2022/02/19 14:50:13;;;;;;;21.30;13.60;;;;;;;6.94;47.95;99171.20;130602;1266;108980;-78
2022/02/19 14:53:20;;;;;;;13.60;8.20;;;;;;;6.88;47.86;99182.23;130675;1267;108734;-77
2022/02/19 14:56:25;;;;;;;16.60;9.80;;;;;;;6.82;47.96;99188.16;130598;1267;108896;-77
2022/02/19 14:59:30;;;;;;;34.50;20.00;;;;;;;6.74;47.86;99186.70;130625;1267;108673;-77
2022/02/19 15:02:36;;;;;;;132.40;54.20;;;;;;;6.71;48.11;99201.89;130637;1267;108955;-77
2022/02/19 15:05:42;;;;;;;17.10;9.50;;;;;;;6.66;48.11;99195.09;130503;1267;108868;-77
2022/02/19 15:08:47;;;;;;;11.60;4.30;;;;;;;6.64;48.16;99203.73;130454;1267;109084;-77
2022/02/19 15:11:53;;;;;;;12.10;5.70;;;;;;;6.61;48.35;99212.95;130574;1267;108970;-78
2022/02/19 15:14:58;;;;;;;6.30;3.40;;;;;;;6.56;48.41;99221.75;130442;1267;108711;-76
2022/02/19 15:18:04;;;;;;;10.30;4.10;;;;;;;6.51;48.55;99222.02;131093;1267;108681;-85
2022/02/19 15:21:10;;;;;;;6.60;4.00;;;;;;;6.53;48.48;99230.86;130778;1267;108641;-78
2022/02/19 15:24:15;;;;;;;7.40;3.60;;;;;;;6.53;48.15;99234.89;130473;1267;108773;-77
2022/02/19 15:27:21;;;;;;;8.70;4.20;;;;;;;6.53;48.26;99245.98;130442;1267;106649;-79
2022/02/19 15:30:27;;;;;;;13.80;5.90;;;;;;;6.54;48.09;99246.98;130751;1267;109125;-77
2022/02/19 15:33:32;;;;;;;10.00;4.10;;;;;;;6.54;48.15;99260.09;130717;1267;108848;-75
2022/02/19 15:36:39;;;;;;;13.90;6.10;;;;;;;6.53;48.39;99265.16;130677;1267;108781;-78
2022/02/19 15:39:45;;;;;;;33.50;17.70;;;;;;;6.53;48.07;99266.73;130598;1267;108729;-79
2022/02/19 15:42:51;;;;;;;22.90;10.90;;;;;;;6.54;48.12;99268.36;131192;1267;108525;-82
2022/02/19 15:45:57;;;;;;;32.70;14.80;;;;;;;6.54;48.02;99274.54;131271;1267;108801;-79
2022/02/19 15:49:04;;;;;;;61.70;26.70;;;;;;;6.49;48.19;99288.64;131106;1267;108878;-81
2022/02/19 15:52:10;;;;;;;70.30;33.30;;;;;;;6.46;48.32;99306.47;130905;1267;107515;-79
2022/02/19 15:55:16;;;;;;;78.10;38.10;;;;;;;6.46;48.29;99308.36;130476;1267;108808;-82
2022/02/19 15:58:21;;;;;;;53.10;26.60;;;;;;;6.44;48.46;99319.20;130714;1267;108958;-81
2022/02/19 16:01:28;;;;;;;48.30;22.60;;;;;;;6.41;48.46;99330.02;130688;1267;109187;-81
2022/02/19 16:04:33;;;;;;;51.30;24.40;;;;;;;6.41;48.54;99332.40;130705;1267;108884;-80
2022/02/19 16:07:39;;;;;;;76.60;35.80;;;;;;;6.39;48.62;99343.34;130673;1267;108747;-79
2022/02/19 16:10:44;;;;;;;60.20;29.60;;;;;;;6.37;48.55;99344.04;130703;1266;108813;-78
2022/02/19 16:13:50;;;;;;;31.90;15.00;;;;;;;6.32;48.62;99358.64;130650;1267;108707;-74
2022/02/19 16:16:56;;;;;;;38.30;18.80;;;;;;;6.25;48.95;99364.39;130499;1266;108970;-80
2022/02/19 16:20:01;;;;;;;37.20;17.40;;;;;;;6.23;48.89;99369.56;130555;1266;109012;-77
2022/02/19 16:23:08;;;;;;;41.30;18.70;;;;;;;6.20;49.21;99378.34;130645;1267;108523;-78
2022/02/19 16:26:15;;;;;;;54.50;25.60;;;;;;;6.18;49.28;99392.30;130533;1266;107106;-80
2022/02/19 16:29:21;;;;;;;78.70;35.00;;;;;;;6.16;49.24;99401.34;130493;1265;107623;-80
2022/02/19 16:32:26;;;;;;;65.80;29.50;;;;;;;6.14;49.69;99409.09;130471;1265;108881;-80
2022/02/19 16:35:32;;;;;;;37.10;15.80;;;;;;;6.09;49.69;99424.80;130741;1265;107754;-78
2022/02/19 16:38:38;;;;;;;123.60;52.30;;;;;;;6.04;49.74;99431.05;130652;1265;108916;-77
2022/02/19 16:41:43;;;;;;;102.60;49.40;;;;;;;6.06;49.99;99436.88;130689;1265;108890;-76
2022/02/19 16:44:51;;;;;;;102.80;46.20;;;;;;;6.06;50.15;99449.27;130635;1265;108826;-76
2022/02/19 16:47:57;;;;;;;91.70;40.60;;;;;;;6.07;50.17;99460.78;130720;1265;108652;-76
2022/02/19 16:51:03;;;;;;;28.10;12.30;;;;;;;6.07;50.27;99463.23;130648;1265;109013;-77
2022/02/19 16:54:09;;;;;;;120.30;52.80;;;;;;;6.05;50.42;99482.86;130519;1265;109126;-82
2022/02/19 16:57:15;;;;;;;147.00;58.90;;;;;;;6.04;50.35;99485.11;130525;1265;108992;-76
2022/02/19 17:00:22;;;;;;;86.80;38.80;;;;;;;6.03;50.45;99492.09;130576;1265;108767;-79
2022/02/19 17:03:27;;;;;;;275.30;150.90;;;;;;;6.04;50.79;99492.38;130549;1265;108893;-81
2022/02/19 17:06:33;;;;;;;18.90;8.20;;;;;;;6.03;50.58;99504.02;130583;1265;109054;-78
2022/02/19 17:09:39;;;;;;;18.40;7.90;;;;;;;6.00;50.84;99511.42;130513;1265;108726;-79
2022/02/19 17:12:45;;;;;;;14.80;5.90;;;;;;;5.96;50.68;99522.21;130440;1265;107750;-78
2022/02/19 17:15:52;;;;;;;9.80;5.00;;;;;;;5.91;51.44;99539.27;130453;1265;108731;-78
2022/02/19 17:18:57;;;;;;;51.20;25.50;;;;;;;5.88;51.37;99543.73;130615;1265;108661;-79
2022/02/19 17:22:03;;;;;;;96.70;58.20;;;;;;;5.87;51.43;99542.23;130703;1265;108909;-78
2022/02/19 17:25:10;;;;;;;20.90;12.30;;;;;;;5.88;51.43;99551.48;130714;1265;108098;-79
2022/02/19 17:28:17;;;;;;;107.60;53.90;;;;;;;5.86;51.90;99562.65;130964;1265;108828;-79
2022/02/19 17:31:25;;;;;;;52.30;28.40;;;;;;;5.82;51.66;99559.83;130963;1267;108746;-80
2022/02/19 17:34:31;;;;;;;119.10;51.40;;;;;;;5.80;51.60;99567.90;130701;1267;108810;-78
2022/02/19 17:37:38;;;;;;;133.60;53.20;;;;;;;5.79;51.63;99573.67;130460;1266;109245;-78
2022/02/19 17:40:44;;;;;;;113.00;46.30;;;;;;;5.78;51.45;99575.20;130634;1267;108932;-78
2022/02/19 17:43:50;;;;;;;88.20;37.40;;;;;;;5.78;51.61;99584.16;130442;1267;108677;-78
2022/02/19 17:46:55;;;;;;;92.10;41.60;;;;;;;5.76;51.64;99579.63;130443;1267;108775;-80
2022/02/19 17:50:01;;;;;;;122.50;41.70;;;;;;;5.72;51.61;99582.74;130635;1267;108751;-78
2022/02/19 17:53:07;;;;;;;17.60;7.10;;;;;;;5.72;51.55;99589.46;130384;1267;108760;-77